sensor_id;sensor_type;location;lat;lon;timestamp;P1;durP1;ratioP1;P2;durP2;ratioP2
14030;SDS011;7090;49.436;8.490;2022-07-23T00:01:18;1.30;;;1.30;;
14030;SDS011;7090;49.436;8.490;2022-07-23T00:03:43;1.42;;;1.42;;
14030;SDS011;7090;49.436;8.490;2022-07-23T00:06:09;1.55;;;1.50;;
14030;SDS011;7090;49.436;8.490;2022-07-23T00:08:35;1.60;;;1.60;;
14030;SDS011;7090;49.436;8.490;2022-07-23T00:11:01;10.73;;;3.08;;
14030;SDS011;7090;49.436;8.490;2022-07-23T00:13:27;2.30;;;2.20;;
14030;SDS011;7090;49.436;8.490;2022-07-23T00:15:53;2.08;;;1.88;;
14030;SDS011;7090;49.436;8.490;2022-07-23T00:18:18;1.90;;;1.80;;
14030;SDS011;7090;49.436;8.490;2022-07-23T00:20:44;3.00;;;1.85;;
14030;SDS011;7090;49.436;8.490;2022-07-23T00:23:10;2.45;;;2.35;;
14030;SDS011;7090;49.436;8.490;2022-07-23T00:25:35;6.30;;;5.93;;
14030;SDS011;7090;49.436;8.490;2022-07-23T00:28:01;1.77;;;1.67;;
14030;SDS011;7090;49.436;8.490;2022-07-23T00:30:28;2.60;;;2.50;;
14030;SDS011;7090;49.436;8.490;2022-07-23T00:32:58;2.50;;;2.30;;
14030;SDS011;7090;49.436;8.490;2022-07-23T00:35:25;2.25;;;2.15;;
14030;SDS011;7090;49.436;8.490;2022-07-23T00:37:53;1.67;;;1.67;;
14030;SDS011;7090;49.436;8.490;2022-07-23T00:40:19;1.30;;;1.30;;
14030;SDS011;7090;49.436;8.490;2022-07-23T00:42:45;1.10;;;1.10;;
14030;SDS011;7090;49.436;8.490;2022-07-23T00:45:11;1.65;;;1.55;;
14030;SDS011;7090;49.436;8.490;2022-07-23T00:47:37;1.00;;;1.00;;
14030;SDS011;7090;49.436;8.490;2022-07-23T00:50:03;1.50;;;1.42;;
14030;SDS011;7090;49.436;8.490;2022-07-23T00:52:31;1.17;;;1.17;;
14030;SDS011;7090;49.436;8.490;2022-07-23T00:54:57;1.88;;;1.77;;
14030;SDS011;7090;49.436;8.490;2022-07-23T00:57:23;4.25;;;1.75;;
14030;SDS011;7090;49.436;8.490;2022-07-23T00:59:48;1.75;;;1.65;;
14030;SDS011;7090;49.436;8.490;2022-07-23T01:02:14;1.20;;;1.20;;
14030;SDS011;7090;49.436;8.490;2022-07-23T01:04:40;1.25;;;1.25;;
14030;SDS011;7090;49.436;8.490;2022-07-23T01:07:05;1.23;;;1.23;;
14030;SDS011;7090;49.436;8.490;2022-07-23T01:09:32;1.10;;;1.10;;
14030;SDS011;7090;49.436;8.490;2022-07-23T01:11:57;1.00;;;1.00;;
14030;SDS011;7090;49.436;8.490;2022-07-23T01:14:24;0.90;;;0.90;;
14030;SDS011;7090;49.436;8.490;2022-07-23T01:16:50;1.00;;;1.00;;
14030;SDS011;7090;49.436;8.490;2022-07-23T01:19:16;1.58;;;1.25;;
14030;SDS011;7090;49.436;8.490;2022-07-23T01:21:44;1.42;;;1.42;;
14030;SDS011;7090;49.436;8.490;2022-07-23T01:24:11;1.05;;;1.05;;
14030;SDS011;7090;49.436;8.490;2022-07-23T01:26:38;1.75;;;1.75;;
14030;SDS011;7090;49.436;8.490;2022-07-23T01:29:06;1.20;;;1.20;;
14030;SDS011;7090;49.436;8.490;2022-07-23T01:31:32;1.20;;;1.20;;
14030;SDS011;7090;49.436;8.490;2022-07-23T01:33:58;1.20;;;1.20;;
14030;SDS011;7090;49.436;8.490;2022-07-23T01:36:24;1.15;;;1.15;;
14030;SDS011;7090;49.436;8.490;2022-07-23T01:38:49;1.20;;;1.20;;
14030;SDS011;7090;49.436;8.490;2022-07-23T01:41:15;1.20;;;1.20;;
14030;SDS011;7090;49.436;8.490;2022-07-23T01:43:41;1.10;;;1.10;;
14030;SDS011;7090;49.436;8.490;2022-07-23T01:46:07;1.30;;;1.30;;
14030;SDS011;7090;49.436;8.490;2022-07-23T01:48:33;1.50;;;1.50;;
14030;SDS011;7090;49.436;8.490;2022-07-23T01:50:58;2.38;;;2.28;;
14030;SDS011;7090;49.436;8.490;2022-07-23T01:53:24;1.88;;;1.80;;
14030;SDS011;7090;49.436;8.490;2022-07-23T01:55:50;2.45;;;2.25;;
14030;SDS011;7090;49.436;8.490;2022-07-23T01:58:15;2.08;;;2.00;;
14030;SDS011;7090;49.436;8.490;2022-07-23T02:00:41;1.30;;;1.30;;
14030;SDS011;7090;49.436;8.490;2022-07-23T02:03:07;2.05;;;1.95;;
14030;SDS011;7090;49.436;8.490;2022-07-23T02:05:32;3.53;;;3.33;;
14030;SDS011;7090;49.436;8.490;2022-07-23T02:07:58;2.03;;;1.92;;
14030;SDS011;7090;49.436;8.490;2022-07-23T02:10:24;1.80;;;1.70;;
14030;SDS011;7090;49.436;8.490;2022-07-23T02:12:50;1.88;;;1.77;;
14030;SDS011;7090;49.436;8.490;2022-07-23T02:15:16;4.20;;;2.28;;
14030;SDS011;7090;49.436;8.490;2022-07-23T02:17:42;1.60;;;1.50;;
14030;SDS011;7090;49.436;8.490;2022-07-23T02:20:08;2.05;;;1.95;;
14030;SDS011;7090;49.436;8.490;2022-07-23T02:22:35;2.53;;;2.42;;
14030;SDS011;7090;49.436;8.490;2022-07-23T02:25:02;1.80;;;1.80;;
14030;SDS011;7090;49.436;8.490;2022-07-23T02:27:28;1.60;;;1.60;;
14030;SDS011;7090;49.436;8.490;2022-07-23T02:29:54;1.90;;;1.65;;
14030;SDS011;7090;49.436;8.490;2022-07-23T02:32:20;7.97;;;2.28;;
14030;SDS011;7090;49.436;8.490;2022-07-23T02:34:48;1.30;;;1.30;;
14030;SDS011;7090;49.436;8.490;2022-07-23T02:37:14;4.85;;;2.25;;
14030;SDS011;7090;49.436;8.490;2022-07-23T02:39:39;2.88;;;2.60;;
14030;SDS011;7090;49.436;8.490;2022-07-23T02:42:05;2.33;;;2.15;;
14030;SDS011;7090;49.436;8.490;2022-07-23T02:44:31;1.38;;;1.35;;
14030;SDS011;7090;49.436;8.490;2022-07-23T02:46:57;1.88;;;1.77;;
14030;SDS011;7090;49.436;8.490;2022-07-23T02:49:22;1.40;;;1.40;;
14030;SDS011;7090;49.436;8.490;2022-07-23T02:51:48;1.58;;;1.58;;
14030;SDS011;7090;49.436;8.490;2022-07-23T02:54:14;1.30;;;1.30;;
14030;SDS011;7090;49.436;8.490;2022-07-23T02:56:40;1.33;;;1.33;;
14030;SDS011;7090;49.436;8.490;2022-07-23T02:59:05;1.52;;;1.48;;
14030;SDS011;7090;49.436;8.490;2022-07-23T03:01:31;2.75;;;2.55;;
14030;SDS011;7090;49.436;8.490;2022-07-23T03:03:57;1.50;;;1.50;;
14030;SDS011;7090;49.436;8.490;2022-07-23T03:06:22;2.08;;;1.98;;
14030;SDS011;7090;49.436;8.490;2022-07-23T03:08:48;1.30;;;1.30;;
14030;SDS011;7090;49.436;8.490;2022-07-23T03:11:14;1.20;;;1.20;;
14030;SDS011;7090;49.436;8.490;2022-07-23T03:13:39;1.65;;;1.65;;
14030;SDS011;7090;49.436;8.490;2022-07-23T03:16:06;1.85;;;1.85;;
14030;SDS011;7090;49.436;8.490;2022-07-23T03:18:32;2.05;;;1.95;;
14030;SDS011;7090;49.436;8.490;2022-07-23T03:20:58;2.40;;;2.30;;
14030;SDS011;7090;49.436;8.490;2022-07-23T03:23:24;1.50;;;1.50;;
14030;SDS011;7090;49.436;8.490;2022-07-23T03:25:49;1.40;;;1.40;;
14030;SDS011;7090;49.436;8.490;2022-07-23T03:28:15;2.95;;;2.75;;
14030;SDS011;7090;49.436;8.490;2022-07-23T03:30:45;1.92;;;1.92;;
14030;SDS011;7090;49.436;8.490;2022-07-23T03:33:18;1.83;;;1.83;;
14030;SDS011;7090;49.436;8.490;2022-07-23T03:35:45;1.75;;;1.75;;
14030;SDS011;7090;49.436;8.490;2022-07-23T03:38:12;1.60;;;1.60;;
14030;SDS011;7090;49.436;8.490;2022-07-23T03:40:38;1.58;;;1.58;;
14030;SDS011;7090;49.436;8.490;2022-07-23T03:43:04;1.70;;;1.70;;
14030;SDS011;7090;49.436;8.490;2022-07-23T03:45:31;1.60;;;1.60;;
14030;SDS011;7090;49.436;8.490;2022-07-23T03:47:57;1.60;;;1.60;;
14030;SDS011;7090;49.436;8.490;2022-07-23T03:50:22;1.50;;;1.50;;
14030;SDS011;7090;49.436;8.490;2022-07-23T03:52:48;1.60;;;1.60;;
14030;SDS011;7090;49.436;8.490;2022-07-23T03:55:14;2.50;;;2.40;;
14030;SDS011;7090;49.436;8.490;2022-07-23T03:57:40;1.80;;;1.80;;
14030;SDS011;7090;49.436;8.490;2022-07-23T04:00:05;1.92;;;1.92;;
14030;SDS011;7090;49.436;8.490;2022-07-23T04:02:34;2.30;;;2.10;;
14030;SDS011;7090;49.436;8.490;2022-07-23T04:05:00;2.58;;;2.45;;
14030;SDS011;7090;49.436;8.490;2022-07-23T04:07:26;2.55;;;2.45;;
14030;SDS011;7090;49.436;8.490;2022-07-23T04:09:52;5.38;;;5.07;;
14030;SDS011;7090;49.436;8.490;2022-07-23T04:12:18;7.53;;;7.15;;
14030;SDS011;7090;49.436;8.490;2022-07-23T04:14:43;8.20;;;7.55;;
14030;SDS011;7090;49.436;8.490;2022-07-23T04:17:09;5.40;;;5.20;;
14030;SDS011;7090;49.436;8.490;2022-07-23T04:19:35;4.32;;;4.22;;
14030;SDS011;7090;49.436;8.490;2022-07-23T04:22:05;3.90;;;3.80;;
14030;SDS011;7090;49.436;8.490;2022-07-23T04:24:31;4.18;;;4.03;;
14030;SDS011;7090;49.436;8.490;2022-07-23T04:26:57;3.63;;;3.53;;
14030;SDS011;7090;49.436;8.490;2022-07-23T04:29:23;3.70;;;3.60;;
14030;SDS011;7090;49.436;8.490;2022-07-23T04:31:49;3.90;;;3.80;;
14030;SDS011;7090;49.436;8.490;2022-07-23T04:34:14;3.60;;;3.50;;
14030;SDS011;7090;49.436;8.490;2022-07-23T04:36:40;4.32;;;4.13;;
14030;SDS011;7090;49.436;8.490;2022-07-23T04:39:06;4.78;;;4.57;;
14030;SDS011;7090;49.436;8.490;2022-07-23T04:41:31;4.05;;;3.92;;
14030;SDS011;7090;49.436;8.490;2022-07-23T04:43:57;6.47;;;6.15;;
14030;SDS011;7090;49.436;8.490;2022-07-23T04:46:23;6.60;;;6.30;;
14030;SDS011;7090;49.436;8.490;2022-07-23T04:48:48;8.60;;;8.10;;
14030;SDS011;7090;49.436;8.490;2022-07-23T04:51:14;6.72;;;6.18;;
14030;SDS011;7090;49.436;8.490;2022-07-23T04:53:40;6.88;;;6.47;;
14030;SDS011;7090;49.436;8.490;2022-07-23T04:56:05;6.40;;;6.10;;
14030;SDS011;7090;49.436;8.490;2022-07-23T04:58:31;5.65;;;5.45;;
14030;SDS011;7090;49.436;8.490;2022-07-23T05:00:57;7.00;;;6.65;;
14030;SDS011;7090;49.436;8.490;2022-07-23T05:03:23;6.82;;;6.63;;
14030;SDS011;7090;49.436;8.490;2022-07-23T05:05:48;7.47;;;7.18;;
14030;SDS011;7090;49.436;8.490;2022-07-23T05:08:14;8.93;;;8.63;;
14030;SDS011;7090;49.436;8.490;2022-07-23T05:10:40;9.60;;;9.20;;
14030;SDS011;7090;49.436;8.490;2022-07-23T05:13:06;9.05;;;8.75;;
14030;SDS011;7090;49.436;8.490;2022-07-23T05:15:31;9.38;;;8.98;;
14030;SDS011;7090;49.436;8.490;2022-07-23T05:17:57;9.38;;;8.98;;
14030;SDS011;7090;49.436;8.490;2022-07-23T05:20:22;9.35;;;8.85;;
14030;SDS011;7090;49.436;8.490;2022-07-23T05:22:48;8.23;;;7.93;;
14030;SDS011;7090;49.436;8.490;2022-07-23T05:25:14;7.00;;;6.80;;
14030;SDS011;7090;49.436;8.490;2022-07-23T05:27:39;7.07;;;6.88;;
14030;SDS011;7090;49.436;8.490;2022-07-23T05:30:05;6.93;;;6.72;;
14030;SDS011;7090;49.436;8.490;2022-07-23T05:32:32;6.63;;;6.43;;
14030;SDS011;7090;49.436;8.490;2022-07-23T05:34:57;7.30;;;7.00;;
14030;SDS011;7090;49.436;8.490;2022-07-23T05:37:23;6.80;;;6.60;;
14030;SDS011;7090;49.436;8.490;2022-07-23T05:39:49;6.30;;;6.10;;
14030;SDS011;7090;49.436;8.490;2022-07-23T05:42:14;5.70;;;5.50;;
14030;SDS011;7090;49.436;8.490;2022-07-23T05:44:40;5.63;;;5.43;;
14030;SDS011;7090;49.436;8.490;2022-07-23T05:47:06;6.95;;;6.65;;
14030;SDS011;7090;49.436;8.490;2022-07-23T05:49:31;4.70;;;4.60;;
14030;SDS011;7090;49.436;8.490;2022-07-23T05:51:57;5.00;;;4.80;;
14030;SDS011;7090;49.436;8.490;2022-07-23T05:54:22;4.80;;;4.60;;
14030;SDS011;7090;49.436;8.490;2022-07-23T05:56:48;4.70;;;4.50;;
14030;SDS011;7090;49.436;8.490;2022-07-23T05:59:15;4.00;;;3.90;;
14030;SDS011;7090;49.436;8.490;2022-07-23T06:01:40;4.97;;;4.72;;
14030;SDS011;7090;49.436;8.490;2022-07-23T06:04:06;3.53;;;3.42;;
14030;SDS011;7090;49.436;8.490;2022-07-23T06:06:32;3.13;;;3.03;;
14030;SDS011;7090;49.436;8.490;2022-07-23T06:08:58;4.53;;;4.22;;
14030;SDS011;7090;49.436;8.490;2022-07-23T06:11:24;3.20;;;3.10;;
14030;SDS011;7090;49.436;8.490;2022-07-23T06:13:49;3.42;;;3.33;;
14030;SDS011;7090;49.436;8.490;2022-07-23T06:16:15;3.80;;;3.65;;
14030;SDS011;7090;49.436;8.490;2022-07-23T06:18:40;3.47;;;3.38;;
14030;SDS011;7090;49.436;8.490;2022-07-23T06:21:06;3.70;;;3.60;;
14030;SDS011;7090;49.436;8.490;2022-07-23T06:23:32;3.80;;;3.70;;
14030;SDS011;7090;49.436;8.490;2022-07-23T06:25:57;3.78;;;3.67;;
14030;SDS011;7090;49.436;8.490;2022-07-23T06:28:23;3.60;;;3.50;;
14030;SDS011;7090;49.436;8.490;2022-07-23T06:30:48;3.40;;;3.30;;
14030;SDS011;7090;49.436;8.490;2022-07-23T06:33:14;3.40;;;3.30;;
14030;SDS011;7090;49.436;8.490;2022-07-23T06:35:40;3.60;;;3.50;;
14030;SDS011;7090;49.436;8.490;2022-07-23T06:38:06;4.75;;;4.55;;
14030;SDS011;7090;49.436;8.490;2022-07-23T06:40:31;3.40;;;3.30;;
14030;SDS011;7090;49.436;8.490;2022-07-23T06:42:57;5.25;;;4.80;;
14030;SDS011;7090;49.436;8.490;2022-07-23T06:45:22;4.55;;;4.15;;
14030;SDS011;7090;49.436;8.490;2022-07-23T06:47:48;3.20;;;3.10;;
14030;SDS011;7090;49.436;8.490;2022-07-23T06:50:14;3.67;;;3.50;;
14030;SDS011;7090;49.436;8.490;2022-07-23T06:52:39;4.38;;;4.18;;
14030;SDS011;7090;49.436;8.490;2022-07-23T06:55:05;4.43;;;4.22;;
14030;SDS011;7090;49.436;8.490;2022-07-23T06:57:31;3.40;;;3.30;;
14030;SDS011;7090;49.436;8.490;2022-07-23T06:59:56;3.67;;;3.58;;
14030;SDS011;7090;49.436;8.490;2022-07-23T07:02:22;2.95;;;2.85;;
14030;SDS011;7090;49.436;8.490;2022-07-23T07:04:48;2.95;;;2.85;;
14030;SDS011;7090;49.436;8.490;2022-07-23T07:07:14;3.10;;;3.00;;
14030;SDS011;7090;49.436;8.490;2022-07-23T07:09:40;3.75;;;3.65;;
14030;SDS011;7090;49.436;8.490;2022-07-23T07:12:05;9.18;;;6.65;;
14030;SDS011;7090;49.436;8.490;2022-07-23T07:14:31;2.90;;;2.80;;
14030;SDS011;7090;49.436;8.490;2022-07-23T07:16:57;3.00;;;2.90;;
14030;SDS011;7090;49.436;8.490;2022-07-23T07:19:22;3.95;;;3.83;;
14030;SDS011;7090;49.436;8.490;2022-07-23T07:21:48;3.28;;;3.17;;
14030;SDS011;7090;49.436;8.490;2022-07-23T07:24:13;3.50;;;3.40;;
14030;SDS011;7090;49.436;8.490;2022-07-23T07:26:39;4.25;;;4.15;;
14030;SDS011;7090;49.436;8.490;2022-07-23T07:29:05;3.40;;;3.30;;
14030;SDS011;7090;49.436;8.490;2022-07-23T07:31:31;5.13;;;4.88;;
14030;SDS011;7090;49.436;8.490;2022-07-23T07:33:57;3.30;;;3.20;;
14030;SDS011;7090;49.436;8.490;2022-07-23T07:36:23;3.60;;;3.50;;
14030;SDS011;7090;49.436;8.490;2022-07-23T07:38:49;3.63;;;3.53;;
14030;SDS011;7090;49.436;8.490;2022-07-23T07:41:14;3.53;;;3.42;;
14030;SDS011;7090;49.436;8.490;2022-07-23T07:43:40;3.08;;;2.97;;
14030;SDS011;7090;49.436;8.490;2022-07-23T07:46:06;5.07;;;4.63;;
14030;SDS011;7090;49.436;8.490;2022-07-23T07:48:36;4.88;;;4.38;;
14030;SDS011;7090;49.436;8.490;2022-07-23T07:51:03;6.40;;;5.78;;
14030;SDS011;7090;49.436;8.490;2022-07-23T07:53:30;7.63;;;5.47;;
14030;SDS011;7090;49.436;8.490;2022-07-23T07:55:55;2.35;;;2.25;;
14030;SDS011;7090;49.436;8.490;2022-07-23T07:58:21;4.57;;;3.88;;
14030;SDS011;7090;49.436;8.490;2022-07-23T08:00:47;1.90;;;1.90;;
14030;SDS011;7090;49.436;8.490;2022-07-23T08:03:12;1.55;;;1.52;;
14030;SDS011;7090;49.436;8.490;2022-07-23T08:05:38;1.83;;;1.83;;
14030;SDS011;7090;49.436;8.490;2022-07-23T08:08:04;1.55;;;1.55;;
14030;SDS011;7090;49.436;8.490;2022-07-23T08:10:29;2.05;;;1.95;;
14030;SDS011;7090;49.436;8.490;2022-07-23T08:12:56;2.08;;;1.98;;
14030;SDS011;7090;49.436;8.490;2022-07-23T08:15:22;1.40;;;1.40;;
14030;SDS011;7090;49.436;8.490;2022-07-23T08:17:49;1.48;;;1.48;;
14030;SDS011;7090;49.436;8.490;2022-07-23T08:20:17;1.60;;;1.60;;
14030;SDS011;7090;49.436;8.490;2022-07-23T08:22:49;1.48;;;1.48;;
14030;SDS011;7090;49.436;8.490;2022-07-23T08:25:15;1.80;;;1.80;;
14030;SDS011;7090;49.436;8.490;2022-07-23T08:27:44;1.60;;;1.60;;
14030;SDS011;7090;49.436;8.490;2022-07-23T08:30:10;1.95;;;1.88;;
14030;SDS011;7090;49.436;8.490;2022-07-23T08:35:22;3.00;;;2.63;;
14030;SDS011;7090;49.436;8.490;2022-07-23T08:37:50;3.85;;;2.95;;
14030;SDS011;7090;49.436;8.490;2022-07-23T08:40:15;1.20;;;1.20;;
14030;SDS011;7090;49.436;8.490;2022-07-23T08:42:41;2.30;;;2.20;;
14030;SDS011;7090;49.436;8.490;2022-07-23T08:45:07;1.65;;;1.55;;
14030;SDS011;7090;49.436;8.490;2022-07-23T08:47:34;2.53;;;2.35;;
14030;SDS011;7090;49.436;8.490;2022-07-23T08:50:02;4.13;;;3.38;;
14030;SDS011;7090;49.436;8.490;2022-07-23T08:52:28;2.67;;;2.05;;
14030;SDS011;7090;49.436;8.490;2022-07-23T08:54:55;1.90;;;1.80;;
14030;SDS011;7090;49.436;8.490;2022-07-23T08:57:22;6.47;;;3.17;;
14030;SDS011;7090;49.436;8.490;2022-07-23T08:59:47;1.20;;;1.20;;
14030;SDS011;7090;49.436;8.490;2022-07-23T09:02:13;2.45;;;2.35;;
14030;SDS011;7090;49.436;8.490;2022-07-23T09:04:39;1.52;;;1.52;;
14030;SDS011;7090;49.436;8.490;2022-07-23T09:07:04;3.63;;;3.17;;
14030;SDS011;7090;49.436;8.490;2022-07-23T09:09:30;1.55;;;1.50;;
14030;SDS011;7090;49.436;8.490;2022-07-23T09:12:05;1.13;;;1.13;;
14030;SDS011;7090;49.436;8.490;2022-07-23T09:14:39;2.30;;;2.20;;
14030;SDS011;7090;49.436;8.490;2022-07-23T09:19:35;2.60;;;2.40;;
14030;SDS011;7090;49.436;8.490;2022-07-23T09:22:20;1.80;;;1.80;;
14030;SDS011;7090;49.436;8.490;2022-07-23T09:25:09;4.18;;;1.90;;
14030;SDS011;7090;49.436;8.490;2022-07-23T09:30:20;7.93;;;5.63;;
14030;SDS011;7090;49.436;8.490;2022-07-23T09:33:05;5.35;;;3.08;;
14030;SDS011;7090;49.436;8.490;2022-07-23T09:35:43;2.30;;;2.10;;
14030;SDS011;7090;49.436;8.490;2022-07-23T09:38:16;4.97;;;2.33;;
14030;SDS011;7090;49.436;8.490;2022-07-23T09:40:43;7.63;;;6.13;;
14030;SDS011;7090;49.436;8.490;2022-07-23T09:43:10;2.78;;;2.58;;
14030;SDS011;7090;49.436;8.490;2022-07-23T09:45:37;3.33;;;3.03;;
14030;SDS011;7090;49.436;8.490;2022-07-23T09:48:14;3.00;;;2.75;;
14030;SDS011;7090;49.436;8.490;2022-07-23T09:50:40;1.80;;;1.80;;
14030;SDS011;7090;49.436;8.490;2022-07-23T09:53:08;4.10;;;3.78;;
14030;SDS011;7090;49.436;8.490;2022-07-23T09:55:34;2.25;;;2.15;;
14030;SDS011;7090;49.436;8.490;2022-07-23T09:58:07;5.22;;;4.00;;
14030;SDS011;7090;49.436;8.490;2022-07-23T10:00:38;1.60;;;1.58;;
14030;SDS011;7090;49.436;8.490;2022-07-23T10:03:05;2.80;;;2.70;;
14030;SDS011;7090;49.436;8.490;2022-07-23T10:05:31;2.60;;;2.50;;
14030;SDS011;7090;49.436;8.490;2022-07-23T10:08:01;2.33;;;2.10;;
14030;SDS011;7090;49.436;8.490;2022-07-23T10:10:27;2.40;;;2.20;;
14030;SDS011;7090;49.436;8.490;2022-07-23T10:12:54;1.55;;;1.55;;
14030;SDS011;7090;49.436;8.490;2022-07-23T10:15:39;2.05;;;1.95;;
14030;SDS011;7090;49.436;8.490;2022-07-23T10:18:06;1.67;;;1.67;;
14030;SDS011;7090;49.436;8.490;2022-07-23T10:20:34;2.20;;;2.10;;
14030;SDS011;7090;49.436;8.490;2022-07-23T10:23:35;3.03;;;2.47;;
14030;SDS011;7090;49.436;8.490;2022-07-23T10:28:46;2.05;;;1.88;;
14030;SDS011;7090;49.436;8.490;2022-07-23T10:34:23;1.88;;;1.85;;
14030;SDS011;7090;49.436;8.490;2022-07-23T10:39:42;3.15;;;2.95;;
14030;SDS011;7090;49.436;8.490;2022-07-23T10:42:12;3.45;;;3.15;;
14030;SDS011;7090;49.436;8.490;2022-07-23T10:44:43;1.90;;;1.80;;
14030;SDS011;7090;49.436;8.490;2022-07-23T10:47:11;2.67;;;2.47;;
14030;SDS011;7090;49.436;8.490;2022-07-23T10:49:37;4.28;;;3.88;;
14030;SDS011;7090;49.436;8.490;2022-07-23T10:54:54;2.38;;;2.25;;
14030;SDS011;7090;49.436;8.490;2022-07-23T10:57:28;1.67;;;1.67;;
14030;SDS011;7090;49.436;8.490;2022-07-23T11:02:28;8.13;;;5.25;;
14030;SDS011;7090;49.436;8.490;2022-07-23T11:05:01;3.70;;;2.60;;
14030;SDS011;7090;49.436;8.490;2022-07-23T11:07:29;5.75;;;3.60;;
14030;SDS011;7090;49.436;8.490;2022-07-23T11:09:57;6.30;;;5.05;;
14030;SDS011;7090;49.436;8.490;2022-07-23T11:17:22;3.10;;;2.95;;
14030;SDS011;7090;49.436;8.490;2022-07-23T11:22:37;2.45;;;1.75;;
14030;SDS011;7090;49.436;8.490;2022-07-23T11:25:03;2.05;;;1.95;;
14030;SDS011;7090;49.436;8.490;2022-07-23T11:30:41;1.30;;;1.30;;
14030;SDS011;7090;49.436;8.490;2022-07-23T11:35:36;2.20;;;2.10;;
14030;SDS011;7090;49.436;8.490;2022-07-23T11:40:47;9.88;;;5.70;;
14030;SDS011;7090;49.436;8.490;2022-07-23T11:43:14;3.13;;;2.92;;
14030;SDS011;7090;49.436;8.490;2022-07-23T11:45:42;2.35;;;2.25;;
14030;SDS011;7090;49.436;8.490;2022-07-23T11:48:18;7.03;;;4.40;;
14030;SDS011;7090;49.436;8.490;2022-07-23T11:50:52;1.65;;;1.65;;
14030;SDS011;7090;49.436;8.490;2022-07-23T11:53:22;3.45;;;3.15;;
14030;SDS011;7090;49.436;8.490;2022-07-23T11:55:49;2.42;;;2.30;;
14030;SDS011;7090;49.436;8.490;2022-07-23T11:58:16;3.70;;;3.13;;
14030;SDS011;7090;49.436;8.490;2022-07-23T12:00:41;2.45;;;2.35;;
14030;SDS011;7090;49.436;8.490;2022-07-23T12:03:07;1.80;;;1.80;;
14030;SDS011;7090;49.436;8.490;2022-07-23T12:05:34;2.17;;;2.08;;
14030;SDS011;7090;49.436;8.490;2022-07-23T12:08:02;2.45;;;2.35;;
14030;SDS011;7090;49.436;8.490;2022-07-23T12:10:35;5.20;;;4.80;;
14030;SDS011;7090;49.436;8.490;2022-07-23T12:13:11;2.53;;;2.33;;
14030;SDS011;7090;49.436;8.490;2022-07-23T12:15:46;2.90;;;2.80;;
14030;SDS011;7090;49.436;8.490;2022-07-23T12:18:17;2.88;;;2.67;;
14030;SDS011;7090;49.436;8.490;2022-07-23T12:20:46;2.22;;;2.13;;
14030;SDS011;7090;49.436;8.490;2022-07-23T12:23:17;1.88;;;1.77;;
14030;SDS011;7090;49.436;8.490;2022-07-23T12:25:45;1.60;;;1.60;;
14030;SDS011;7090;49.436;8.490;2022-07-23T12:28:15;1.90;;;1.80;;
14030;SDS011;7090;49.436;8.490;2022-07-23T12:30:46;2.50;;;2.30;;
14030;SDS011;7090;49.436;8.490;2022-07-23T12:33:14;2.15;;;2.03;;
14030;SDS011;7090;49.436;8.490;2022-07-23T12:35:46;2.53;;;2.42;;
14030;SDS011;7090;49.436;8.490;2022-07-23T12:38:13;7.20;;;6.80;;
14030;SDS011;7090;49.436;8.490;2022-07-23T12:45:51;7.55;;;7.25;;
14030;SDS011;7090;49.436;8.490;2022-07-23T12:48:33;5.85;;;5.65;;
14030;SDS011;7090;49.436;8.490;2022-07-23T12:51:04;5.63;;;5.40;;
14030;SDS011;7090;49.436;8.490;2022-07-23T12:53:36;5.25;;;5.00;;
14030;SDS011;7090;49.436;8.490;2022-07-23T12:56:12;5.90;;;5.68;;
14030;SDS011;7090;49.436;8.490;2022-07-23T13:01:36;3.90;;;3.67;;
14030;SDS011;7090;49.436;8.490;2022-07-23T13:04:09;4.15;;;3.95;;
14030;SDS011;7090;49.436;8.490;2022-07-23T13:06:44;3.47;;;3.22;;
14030;SDS011;7090;49.436;8.490;2022-07-23T13:09:14;2.58;;;2.47;;
14030;SDS011;7090;49.436;8.490;2022-07-23T13:11:42;2.10;;;1.98;;
14030;SDS011;7090;49.436;8.490;2022-07-23T13:14:08;2.22;;;2.13;;
14030;SDS011;7090;49.436;8.490;2022-07-23T13:16:34;1.83;;;1.83;;
14030;SDS011;7090;49.436;8.490;2022-07-23T13:19:00;2.65;;;2.55;;
14030;SDS011;7090;49.436;8.490;2022-07-23T13:21:26;7.50;;;6.78;;
14030;SDS011;7090;49.436;8.490;2022-07-23T13:23:54;3.28;;;2.97;;
14030;SDS011;7090;49.436;8.490;2022-07-23T13:26:21;1.40;;;1.40;;
14030;SDS011;7090;49.436;8.490;2022-07-23T13:28:46;1.40;;;1.40;;
14030;SDS011;7090;49.436;8.490;2022-07-23T13:31:12;2.78;;;2.60;;
14030;SDS011;7090;49.436;8.490;2022-07-23T13:33:38;1.27;;;1.27;;
14030;SDS011;7090;49.436;8.490;2022-07-23T13:36:04;2.10;;;2.00;;
14030;SDS011;7090;49.436;8.490;2022-07-23T13:38:30;1.75;;;1.75;;
14030;SDS011;7090;49.436;8.490;2022-07-23T13:40:56;1.30;;;1.30;;
14030;SDS011;7090;49.436;8.490;2022-07-23T13:43:22;1.52;;;1.52;;
14030;SDS011;7090;49.436;8.490;2022-07-23T13:45:49;1.33;;;1.33;;
14030;SDS011;7090;49.436;8.490;2022-07-23T13:48:17;1.55;;;1.55;;
14030;SDS011;7090;49.436;8.490;2022-07-23T13:50:43;2.53;;;2.40;;
14030;SDS011;7090;49.436;8.490;2022-07-23T13:53:11;1.20;;;1.20;;
14030;SDS011;7090;49.436;8.490;2022-07-23T13:55:38;1.65;;;1.65;;
14030;SDS011;7090;49.436;8.490;2022-07-23T13:58:05;1.40;;;1.40;;
14030;SDS011;7090;49.436;8.490;2022-07-23T14:00:31;1.70;;;1.70;;
14030;SDS011;7090;49.436;8.490;2022-07-23T14:02:59;1.23;;;1.23;;
14030;SDS011;7090;49.436;8.490;2022-07-23T14:05:25;1.30;;;1.30;;
14030;SDS011;7090;49.436;8.490;2022-07-23T14:07:51;1.90;;;1.80;;
14030;SDS011;7090;49.436;8.490;2022-07-23T14:10:19;4.50;;;3.90;;
14030;SDS011;7090;49.436;8.490;2022-07-23T14:12:47;1.95;;;1.85;;
14030;SDS011;7090;49.436;8.490;2022-07-23T14:15:14;2.00;;;1.90;;
14030;SDS011;7090;49.436;8.490;2022-07-23T14:17:40;2.33;;;2.22;;
14030;SDS011;7090;49.436;8.490;2022-07-23T14:20:08;2.03;;;2.03;;
14030;SDS011;7090;49.436;8.490;2022-07-23T14:22:35;2.58;;;2.47;;
14030;SDS011;7090;49.436;8.490;2022-07-23T14:25:01;2.40;;;2.30;;
14030;SDS011;7090;49.436;8.490;2022-07-23T14:27:28;2.20;;;2.08;;
14030;SDS011;7090;49.436;8.490;2022-07-23T14:29:54;2.42;;;2.28;;
14030;SDS011;7090;49.436;8.490;2022-07-23T14:32:20;2.85;;;2.60;;
14030;SDS011;7090;49.436;8.490;2022-07-23T14:34:46;2.70;;;2.50;;
14030;SDS011;7090;49.436;8.490;2022-07-23T14:37:12;3.25;;;3.05;;
14030;SDS011;7090;49.436;8.490;2022-07-23T14:39:38;4.05;;;3.75;;
14030;SDS011;7090;49.436;8.490;2022-07-23T14:42:05;2.35;;;2.25;;
14030;SDS011;7090;49.436;8.490;2022-07-23T14:44:31;1.70;;;1.70;;
14030;SDS011;7090;49.436;8.490;2022-07-23T14:46:57;1.90;;;1.83;;
14030;SDS011;7090;49.436;8.490;2022-07-23T14:49:23;1.73;;;1.67;;
14030;SDS011;7090;49.436;8.490;2022-07-23T14:51:48;2.40;;;2.10;;
14030;SDS011;7090;49.436;8.490;2022-07-23T14:54:14;2.78;;;2.67;;
14030;SDS011;7090;49.436;8.490;2022-07-23T14:56:41;2.90;;;2.65;;
14030;SDS011;7090;49.436;8.490;2022-07-23T14:59:07;2.50;;;1.58;;
14030;SDS011;7090;49.436;8.490;2022-07-23T15:01:33;1.20;;;1.20;;
14030;SDS011;7090;49.436;8.490;2022-07-23T15:03:59;1.63;;;1.52;;
14030;SDS011;7090;49.436;8.490;2022-07-23T15:06:25;1.35;;;1.30;;
14030;SDS011;7090;49.436;8.490;2022-07-23T15:08:50;1.55;;;1.45;;
14030;SDS011;7090;49.436;8.490;2022-07-23T15:11:16;1.40;;;1.40;;
14030;SDS011;7090;49.436;8.490;2022-07-23T15:13:42;1.35;;;1.35;;
14030;SDS011;7090;49.436;8.490;2022-07-23T15:16:08;1.20;;;1.20;;
14030;SDS011;7090;49.436;8.490;2022-07-23T15:18:34;1.42;;;1.42;;
14030;SDS011;7090;49.436;8.490;2022-07-23T15:21:00;2.10;;;2.00;;
14030;SDS011;7090;49.436;8.490;2022-07-23T15:23:26;1.73;;;1.73;;
14030;SDS011;7090;49.436;8.490;2022-07-23T15:25:53;1.85;;;1.75;;
14030;SDS011;7090;49.436;8.490;2022-07-23T15:28:20;2.13;;;2.03;;
14030;SDS011;7090;49.436;8.490;2022-07-23T15:30:46;1.30;;;1.30;;
14030;SDS011;7090;49.436;8.490;2022-07-23T15:33:12;2.55;;;2.40;;
14030;SDS011;7090;49.436;8.490;2022-07-23T15:35:37;3.55;;;2.90;;
14030;SDS011;7090;49.436;8.490;2022-07-23T15:38:03;3.65;;;3.30;;
14030;SDS011;7090;49.436;8.490;2022-07-23T15:40:29;1.50;;;1.50;;
14030;SDS011;7090;49.436;8.490;2022-07-23T15:42:54;1.45;;;1.45;;
14030;SDS011;7090;49.436;8.490;2022-07-23T15:45:20;1.40;;;1.40;;